AirNav   TITAN Aviation Fuels
 
 733 users online  

05AK Wasilla Creek Airpark
Palmer, Alaska, USA

GOING TO PALMER?


FAA INFORMATION EFFECTIVE 20 MAY 2021

Location

FAA Identifier: 05AK
Lat/Long: 61-40-07.1550N 149-11-14.4000W
61-40.119250N 149-11.240000W
61.6686542,-149.1873333
(estimated)
Elevation: 645 ft. / 197 m (estimated)
Variation: 24E (1995)
From city: 5 miles NW of PALMER, AK
Time zone: UTC -8 (UTC -9 during Standard Time)
Zip code: 99645

Airport Operations

Airport use: Private use. Permission required prior to landing
Activation date: 02/2000
Control tower: no
ARTCC: ANCHORAGE CENTER
FSS: PALMER FLIGHT SERVICE STATION [907-745-2495]
Alternate FSS: ENA KENAI FLIGHT SERVICE STATION [1-866-864-1737]
Attendance: UNATNDD
Wind indicator: yes
Segmented circle: no

Airport Communications

CTAF: 122.8
WX ASOS at PAQ (5 nm SE): 134.75 (907-746-6675)
WX AWOS-3P at IYS (12 nm SW): 135.25 (907-373-3801)
WX AWOS-3P at BCV (18 nm SW): 135.55 (907-688-0826)

Nearby radio navigation aids

VOR radial/distance  VOR name  Freq  Var
BGQr056/23.0BIG LAKE VORTAC112.5019E
TEDr018/37.3ANCHORAGE VOR/DME113.1518E

Airport Services

Runway Information

Runway 1/19

Dimensions: 2000 x 100 ft. / 610 x 30 m
Surface: turf/gravel
RUNWAY 1  RUNWAY 19
Latitude: 61-39.980167N61-40.258333N
Longitude: 149-11.423333W149-11.056667W
Elevation: 620.0 ft.645.0 ft.
Traffic pattern: leftright
Runway heading: 008 magnetic, 032 true188 magnetic, 212 true
Obstructions: 50 ft. trees, 20 ft. from runway20 ft. trees, 20 ft. from runway

Airport Ownership and Management from official FAA records

Ownership: Privately-owned
Owner: MICHAEL JAMES GROW
4400 NORTH PALMER-FISHHOOK ROAD
PALMER, AK 99645-9613
Phone 907-745-3573
Manager: MICHAEL JAMES GROW
4400 NORTH PALMER-FISHHOOK ROAD
PALMER, AK 99645-9613
Phone 907-841-4072
907-841-4072 CELL

Airport Operational Statistics

Aircraft based on the field: 2
Single engine airplanes: 2
    

Instrument Procedures

There are no published instrument procedures at 05AK.

Some nearby airports with instrument procedures:

PAAQ - Warren "Bud" Woods Palmer Municipal Airport (5 nm SE)
PAWS - Wasilla Airport (12 nm SW)
PAGQ - Big Lake Airport (20 nm SW)
PAUO - Willow Airport (25 nm W)
PAFR - Bryant Army Airfield Heliport (28 nm SW)
 
Loc | Ops | Rwys | IFR | FBO | Links
Com | Nav | Svcs | Stats | Notes

Crowley
 
Area around 05AK (Wasilla Creek Airpark)
 
Road maps at: MapQuest Bing Google
 
Aerial photo
No photo
 
Sectional chart

 
Airport distance calculator
Flying to Wasilla Creek Airpark? Find the distance to fly.

From to 05AK

Sunrise and sunset
Times for 13-Jun-2021
 Local
(UTC-8)
 Zulu
(UTC)
Morning civil twilight++
Sunrise04:1412:14
Sunset23:4007:40
Evening civil twilight++

Current date and time
Zulu (UTC)  14-Jun-2021 03:57:02
Local (UTC-8)  13-Jun-2021 19:57:02
 
METAR
PAAQ 
5nm SE 
140253Z AUTO 24007KT 10SM CLR 20/06 A2985 RMK AO2 SLP111 T02000061 56004 TSNO $
PABV 
18nm SW 
140256Z AUTO 26008KT 10SM CLR 19/07 A2988 RMK AO2 SLP122 T01890072 56005
PAWS 
18nm N 
140256Z AUTO VRB03KT 10SM CLR 19/08 A2988 RMK AO2 SLP120 T01940078 56003
TAF
PAAQ 
5nm SE 
131723Z 1318/1418 VRB05KT P6SM FEW070
NOTAMs
Click for the latest NOTAMs
NOTAMs are issued by the DoD/FAA and will open in a separate window not controlled by AirNav.

 

 
 

Would you like to see your business listed on this page?

 If your business provides an interesting product or service to pilots, flight crews, aircraft, or users of the Wasilla Creek Airpark, you should consider listing it here.  To start the listing process, click on the button below
 
Add a business
 

Other Pages about Wasilla Creek Airpark

Update a link
 
Copyright © AirNav, LLC. All rights reserved. Privacy Policy  Contact